Aviation Digital Data Service (ADDS)

Output produced by METARs form (0943 UTC 20 November 2017)
found at http://aviationweather.gov/adds/metars/
 
KCXO 200853Z AUTO 00000KT 10SM CLR 04/04 A3022 RMK AO2 SLP233 T00390039 56004